Meteo Giornale » Osservazioni meteo Italia » Aviano

ore: 03:55 - Osservazioni Meteo Aviano
Lat. 46° 0' N Lon. 12° 36' E Alt. 126 metri s.l.m.

sereno Europe/Rome

17 °C

Sereno

Temp. 24 Ore

16 °C

31 °C

Sud-Est

9.3 Km/h

Dew point -2 °C

Umidità 27 %

Visibilità  10 Km

Il sole sorge alle ore 07:33

Il sole tramonta alle ore 18:14

Data e Ora Cielo e Fenomeni T °C DP °C Um. % Pres. hPa Vis. km Vento km/h
Oggi h: 03:55 sereno Sereno 17 -2 27 1016 10 SE 9.3
Oggi h: 02:55 sereno Sereno 18 -1 27 1016 10 N 5.5
Oggi h: 01:55 sereno Sereno 17 -1 29 1016 10 SE 9.3
Oggi h: 00:55 sereno Sereno 19 -1 25 1016 10 S 7.4
Ieri h: 23:55 sereno Sereno 19 -1 25 1016 10 SE 11.1
Ieri h: 22:55 sereno Sereno 20 -1 24 1016 10 SE 11.1
Ieri h: 21:55 sereno Sereno 20 -2 22 1016 10 SE 11.1
Ieri h: 20:55 sereno Sereno 20 -2 22 1017 10 SE 13
Ieri h: 19:55 sereno Sereno 20 -3 20 1017 10 SE 11.1
Ieri h: 18:55 sereno Sereno 23 -2 18 1017 10 N 3.7
Ieri h: 17:55 sereno Sereno 23 -3 17 1017 10 N 1.8
Ieri h: 16:55 sereno Sereno 25 -4 14 1016 10 N 3.7
Ieri h: 14:55 poco_nuvoloso Poco Nuvoloso 29 -4 11 1016 10 N/NO 9.3
Ieri h: 12:55 sereno Sereno 31 -4 10 1016 10 N 5.5
Ieri h: 11:55 sereno Sereno 30 -4 10 1017 10 NO 11.1
Ieri h: 10:55 sereno Sereno 30 -2 12 1017 10 N 5.5
Ieri h: 09:55 sereno Sereno 30 -2 12 1017 10 N 1.8
Ieri h: 08:55 sereno Sereno 29 -2 13 1018 10 N 1.8
Ieri h: 07:55 sereno Sereno 26 -1 16 1018 10 N 1.8
Ieri h: 06:55 sereno Sereno 21 0 24 1018 10 N 5.5
Ieri h: 05:55 sereno Sereno 17 -1 29 1017 10 E/SE 9.3
Ieri h: 04:55 sereno Sereno 16 -1 31 1017 10 SE 9.3